Time;durP1;ratioP1;P1;durP2;ratioP2;P2;SDS_P1;SDS_P2;PMS_P1;PMS_P2;Temp;Humidity;BMP_temperature;BMP_pressure;BME280_temperature;BME280_humidity;BME280_pressure;Samples;Min_cycle;Max_cycle;Signal;HPM_P1;HPM_P2
2023/06/19 00:00:54;;;;;;;;;;;24.90;49.40;;;;;;5096525;28;19920;-62
2023/06/19 00:03:19;;;;;;;;;;;24.80;49.20;;;;;;5096267;28;20016;-62
2023/06/19 00:05:45;;;;;;;;;;;24.80;49.20;;;;;;5114532;28;19973;-62
2023/06/19 00:08:10;;;;;;;;;;;24.80;49.10;;;;;;5096188;28;20367;-62
2023/06/19 00:10:36;;;;;;;;;;;24.80;49.10;;;;;;5096325;28;19927;-62
2023/06/19 00:13:02;;;;;;;;;;;24.90;49.10;;;;;;5096330;28;19926;-62
2023/06/19 00:15:29;;;;;;;;;;;24.80;49.00;;;;;;5095947;28;19927;-62
2023/06/19 00:17:56;;;;;;;;;;;24.80;49.00;;;;;;5095561;28;19920;-62
2023/06/19 00:20:21;;;;;;;;;;;24.80;48.90;;;;;;5095317;28;19931;-62
2023/06/19 00:22:51;;;;;;;;;;;24.80;48.90;;;;;;5095889;28;19920;-62
2023/06/19 00:25:17;;;;;;;;;;;24.80;48.90;;;;;;5096062;28;19930;-62
2023/06/19 00:27:43;;;;;;;;;;;24.80;48.90;;;;;;5113942;28;20163;-62
2023/06/19 00:30:08;;;;;;;;;;;24.70;48.90;;;;;;5096112;28;20355;-62
2023/06/19 00:32:46;;;;;;;;;;;24.80;48.80;;;;;;5113879;28;19927;-62
2023/06/19 00:35:12;;;;;;;;;;;24.80;48.80;;;;;;5097767;28;19927;-62
2023/06/19 00:37:38;;;;;;;;;;;24.80;48.80;;;;;;5113604;28;20004;-62
2023/06/19 00:40:04;;;;;;;;;;;24.70;49.40;;;;;;5095538;28;19978;-62
2023/06/19 00:42:29;;;;;;;;;;;24.70;48.70;;;;;;5129570;27;20382;-62
2023/06/19 00:44:55;;;;;;;;;;;24.80;48.80;;;;;;5113913;28;19919;-62
2023/06/19 00:47:21;;;;;;;;;;;24.80;48.80;;;;;;5095364;28;20022;-63
2023/06/19 00:49:46;;;;;;;;;;;24.70;48.70;;;;;;5129840;27;19931;-62
2023/06/19 00:52:12;;;;;;;;;;;24.80;48.70;;;;;;5095270;28;19920;-62
2023/06/19 00:54:37;;;;;;;;;;;24.70;48.70;;;;;;5129701;27;19973;-61
2023/06/19 00:57:03;;;;;;;;;;;24.80;48.80;;;;;;5095187;28;20410;-62
2023/06/19 00:59:29;;;;;;;;;;;24.70;48.60;;;;;;5095117;28;19923;-62
2023/06/19 01:01:56;;;;;;;;;;;24.70;48.60;;;;;;5095417;28;20002;-62
2023/06/19 01:04:21;;;;;;;;;;;24.70;48.60;;;;;;5095448;28;19942;-62
2023/06/19 01:09:33;;;;;;;;;;;24.70;48.60;;;;;;5089894;28;20379;-62
2023/06/19 01:12:05;;;;;;;;;;;24.70;48.60;;;;;;5088549;28;19920;-62
2023/06/19 01:14:51;;;;;;;;;;;24.70;48.60;;;;;;5088861;28;19921;-62
2023/06/19 01:17:16;;;;;;;;;;;24.70;48.70;;;;;;5088438;28;19931;-62
2023/06/19 01:19:42;;;;;;;;;;;24.70;48.60;;;;;;5088766;28;19924;-62
2023/06/19 01:22:07;;;;;;;;;;;24.70;48.60;;;;;;5088709;28;20360;-61
2023/06/19 01:24:32;;;;;;;;;;;24.70;48.60;;;;;;5088397;28;20264;-62
2023/06/19 01:26:58;;;;;;;;;;;24.70;48.60;;;;;;5088566;28;20007;-62
2023/06/19 01:29:24;;;;;;;;;;;24.70;48.60;;;;;;5088178;28;20394;-62
2023/06/19 01:31:54;;;;;;;;;;;24.70;48.60;;;;;;5088391;28;19920;-62
2023/06/19 01:34:20;;;;;;;;;;;24.70;48.60;;;;;;5088410;28;19920;-62
2023/06/19 01:36:47;;;;;;;;;;;24.70;48.60;;;;;;5088432;28;20295;-62
2023/06/19 01:39:14;;;;;;;;;;;24.70;48.60;;;;;;5088101;28;19921;-62
2023/06/19 01:41:40;;;;;;;;;;;24.70;48.60;;;;;;5089419;28;19927;-62
2023/06/19 01:44:06;;;;;;;;;;;24.70;48.60;;;;;;5088317;28;19920;-62
2023/06/19 01:46:31;;;;;;;;;;;24.70;48.60;;;;;;5088381;28;19924;-62
2023/06/19 01:48:57;;;;;;;;;;;24.70;48.70;;;;;;5087163;28;19924;-62
2023/06/19 01:51:22;;;;;;;;;;;24.70;48.70;;;;;;5088963;28;20291;-62
2023/06/19 01:53:48;;;;;;;;;;;24.70;48.70;;;;;;5088085;28;19928;-62
2023/06/19 01:56:13;;;;;;;;;;;24.70;48.70;;;;;;5089077;28;20375;-62
2023/06/19 01:58:39;;;;;;;;;;;24.70;48.70;;;;;;5089109;28;19928;-62
2023/06/19 02:01:04;;;;;;;;;;;24.70;48.70;;;;;;5087908;28;20256;-62
2023/06/19 02:03:29;;;;;;;;;;;24.70;48.70;;;;;;5087706;28;20089;-62
2023/06/19 02:05:55;;;;;;;;;;;24.70;48.70;;;;;;5088858;28;19920;-62
2023/06/19 02:08:20;;;;;;;;;;;24.70;48.70;;;;;;5087384;28;20031;-62
2023/06/19 02:10:46;;;;;;;;;;;24.70;48.70;;;;;;5087786;28;19990;-63
2023/06/19 02:13:11;;;;;;;;;;;24.70;48.70;;;;;;5087431;28;19924;-62
2023/06/19 02:15:38;;;;;;;;;;;24.70;48.70;;;;;;5087683;28;19920;-62
2023/06/19 02:18:03;;;;;;;;;;;24.70;48.70;;;;;;5087779;28;19949;-63
2023/06/19 02:20:29;;;;;;;;;;;24.70;48.70;;;;;;5075566;28;20398;-62
2023/06/19 02:22:54;;;;;;;;;;;24.70;48.70;;;;;;5074066;28;19965;-62
2023/06/19 02:25:20;;;;;;;;;;;24.60;48.60;;;;;;5074007;28;19965;-62
2023/06/19 02:27:45;;;;;;;;;;;24.60;48.60;;;;;;5073628;28;20402;-62
2023/06/19 02:30:11;;;;;;;;;;;24.60;48.70;;;;;;5073889;28;20017;-62
2023/06/19 02:32:36;;;;;;;;;;;24.60;48.60;;;;;;5075147;28;20019;-62
2023/06/19 02:35:03;;;;;;;;;;;24.60;48.70;;;;;;5073660;28;20367;-62
2023/06/19 02:37:29;;;;;;;;;;;24.60;48.70;;;;;;5074950;28;19974;-62
2023/06/19 02:39:55;;;;;;;;;;;24.60;48.70;;;;;;5073618;28;19924;-62
2023/06/19 02:42:20;;;;;;;;;;;24.60;48.70;;;;;;5073144;28;19974;-62
2023/06/19 02:44:46;;;;;;;;;;;24.60;48.70;;;;;;5073355;28;19982;-62
2023/06/19 02:47:11;;;;;;;;;;;24.60;48.70;;;;;;5073416;28;19979;-62
2023/06/19 02:49:37;;;;;;;;;;;24.60;48.70;;;;;;5073487;28;19920;-62
2023/06/19 02:52:02;;;;;;;;;;;24.60;48.70;;;;;;5074521;28;19920;-62
2023/06/19 02:54:28;;;;;;;;;;;24.60;48.70;;;;;;5074486;28;19974;-62
2023/06/19 02:56:53;;;;;;;;;;;24.60;48.70;;;;;;5073551;28;19920;-62
2023/06/19 02:59:19;;;;;;;;;;;24.60;48.70;;;;;;5074560;28;19921;-62
2023/06/19 03:01:44;;;;;;;;;;;24.60;48.80;;;;;;5074529;28;19927;-62
2023/06/19 03:04:10;;;;;;;;;;;24.60;48.80;;;;;;5073336;28;19991;-62
2023/06/19 03:06:39;;;;;;;;;;;24.60;48.80;;;;;;5072962;28;20426;-62
2023/06/19 03:09:05;;;;;;;;;;;24.60;48.80;;;;;;5090993;28;19939;-62
2023/06/19 03:11:31;;;;;;;;;;;24.60;48.80;;;;;;5094284;28;19924;-62
2023/06/19 03:13:56;;;;;;;;;;;24.50;48.80;;;;;;5076126;28;19924;-62
2023/06/19 03:16:22;;;;;;;;;;;24.60;48.90;;;;;;5075298;28;19931;-62
2023/06/19 03:18:48;;;;;;;;;;;24.50;48.80;;;;;;5094251;28;19973;-62
2023/06/19 03:21:14;;;;;;;;;;;24.50;48.80;;;;;;5076088;28;19927;-62
2023/06/19 03:23:41;;;;;;;;;;;24.60;48.90;;;;;;5075910;28;20393;-61
2023/06/19 03:26:07;;;;;;;;;;;24.60;48.90;;;;;;5076282;28;20432;-63
2023/06/19 03:28:32;;;;;;;;;;;24.60;48.90;;;;;;5075653;28;19943;-62
2023/06/19 03:30:58;;;;;;;;;;;24.50;48.90;;;;;;5075186;28;19920;-62
2023/06/19 03:33:23;;;;;;;;;;;24.50;48.90;;;;;;5075773;28;20371;-62
2023/06/19 03:35:49;;;;;;;;;;;24.50;48.90;;;;;;5094286;28;19920;-62
2023/06/19 03:38:15;;;;;;;;;;;24.50;48.90;;;;;;5075925;28;19965;-62
2023/06/19 03:40:40;;;;;;;;;;;24.60;49.00;;;;;;5075533;28;19969;-62
2023/06/19 03:43:06;;;;;;;;;;;24.50;48.90;;;;;;5075677;28;19956;-62
2023/06/19 03:45:31;;;;;;;;;;;24.60;49.00;;;;;;5075599;28;19931;-62
2023/06/19 03:47:57;;;;;;;;;;;24.50;48.90;;;;;;5093683;28;19924;-62
2023/06/19 03:50:22;;;;;;;;;;;24.50;49.00;;;;;;5092354;28;20383;-62
2023/06/19 03:52:48;;;;;;;;;;;24.50;49.00;;;;;;5092810;28;19920;-62
2023/06/19 03:55:13;;;;;;;;;;;24.50;49.10;;;;;;5093513;28;20375;-62
2023/06/19 03:57:39;;;;;;;;;;;24.50;49.10;;;;;;5092030;28;19946;-62
2023/06/19 04:00:07;;;;;;;;;;;24.50;49.10;;;;;;5093250;28;20015;-62
2023/06/19 04:02:33;;;;;;;;;;;24.50;49.10;;;;;;5075546;28;19928;-62
2023/06/19 04:04:59;;;;;;;;;;;24.50;49.20;;;;;;5093461;28;19927;-62
2023/06/19 04:07:24;;;;;;;;;;;24.50;49.20;;;;;;5074850;28;19924;-62
2023/06/19 04:09:49;;;;;;;;;;;24.50;49.20;;;;;;5075376;28;20328;-62
2023/06/19 04:12:15;;;;;;;;;;;24.50;49.20;;;;;;5093168;28;19924;-62
2023/06/19 04:14:40;;;;;;;;;;;24.50;49.30;;;;;;5093318;28;20011;-62
2023/06/19 04:17:06;;;;;;;;;;;24.50;49.30;;;;;;5093163;28;19927;-62
2023/06/19 04:19:31;;;;;;;;;;;24.50;49.30;;;;;;5074889;28;19924;-62
2023/06/19 04:21:57;;;;;;;;;;;24.50;49.30;;;;;;5074912;28;19924;-61
2023/06/19 04:24:22;;;;;;;;;;;24.50;49.40;;;;;;5074719;28;19920;-62
2023/06/19 04:26:48;;;;;;;;;;;24.50;49.40;;;;;;5075085;28;19924;-62
2023/06/19 04:29:16;;;;;;;;;;;24.50;50.20;;;;;;5074653;28;19979;-62
2023/06/19 04:31:46;;;;;;;;;;;24.50;49.40;;;;;;5074748;28;19924;-62
2023/06/19 04:34:20;;;;;;;;;;;24.50;49.50;;;;;;5092928;28;19924;-62
2023/06/19 04:36:47;;;;;;;;;;;24.50;49.50;;;;;;5092097;28;19943;-62
2023/06/19 04:39:13;;;;;;;;;;;24.50;49.60;;;;;;5074937;28;20057;-62
2023/06/19 04:41:38;;;;;;;;;;;24.50;49.60;;;;;;5075125;28;20409;-62
2023/06/19 04:44:04;;;;;;;;;;;24.50;49.60;;;;;;5074353;28;19927;-63
2023/06/19 04:46:30;;;;;;;;;;;24.50;49.60;;;;;;5074823;28;19966;-62
2023/06/19 04:48:55;;;;;;;;;;;24.50;49.80;;;;;;5092603;28;20389;-62
2023/06/19 04:51:21;;;;;;;;;;;24.50;50.40;;;;;;5074491;28;19931;-62
2023/06/19 04:53:47;;;;;;;;;;;24.40;49.70;;;;;;5092543;28;19920;-62
2023/06/19 04:56:12;;;;;;;;;;;24.50;49.70;;;;;;5074630;28;20286;-62
2023/06/19 04:58:45;;;;;;;;;;;24.40;49.70;;;;;;5074753;28;19920;-62
2023/06/19 05:01:12;;;;;;;;;;;24.40;49.80;;;;;;5092452;28;19920;-62
2023/06/19 05:03:38;;;;;;;;;;;24.40;49.80;;;;;;5074708;28;19920;-62
2023/06/19 05:06:03;;;;;;;;;;;24.40;49.80;;;;;;5074220;28;19920;-62
2023/06/19 05:08:29;;;;;;;;;;;24.40;49.90;;;;;;5074158;28;19932;-62
2023/06/19 05:10:54;;;;;;;;;;;24.40;49.90;;;;;;5092256;28;19963;-62
2023/06/19 05:13:20;;;;;;;;;;;24.40;49.90;;;;;;5074637;28;19964;-62
2023/06/19 05:15:45;;;;;;;;;;;24.40;50.00;;;;;;5074214;28;20439;-62
2023/06/19 05:18:11;;;;;;;;;;;24.40;50.00;;;;;;5074595;28;19927;-62
2023/06/19 05:20:36;;;;;;;;;;;24.40;50.10;;;;;;5092362;28;19927;-62
2023/06/19 05:23:02;;;;;;;;;;;24.40;50.00;;;;;;5072456;28;19928;-62
2023/06/19 05:25:27;;;;;;;;;;;24.40;50.30;;;;;;5074176;28;19927;-62
2023/06/19 05:27:53;;;;;;;;;;;24.40;50.60;;;;;;5074027;28;20295;-61
2023/06/19 05:30:18;;;;;;;;;;;24.40;51.00;;;;;;5074030;28;19927;-61
2023/06/19 05:32:44;;;;;;;;;;;24.40;51.10;;;;;;5092178;28;19919;-61
2023/06/19 05:35:09;;;;;;;;;;;24.40;51.30;;;;;;5073486;28;20339;-60
2023/06/19 05:37:35;;;;;;;;;;;24.40;51.50;;;;;;5072630;28;19920;-61
2023/06/19 05:40:00;;;;;;;;;;;24.40;52.30;;;;;;5086465;28;19965;-59
2023/06/19 05:42:26;;;;;;;;;;;24.40;52.20;;;;;;5071080;28;19943;-60
2023/06/19 05:44:51;;;;;;;;;;;24.40;52.50;;;;;;5090346;28;19920;-59
2023/06/19 05:47:19;;;;;;;;;;;24.40;53.20;;;;;;5071626;28;20379;-59
2023/06/19 05:49:44;;;;;;;;;;;24.50;52.80;;;;;;5089503;28;19971;-60
2023/06/19 05:52:10;;;;;;;;;;;24.50;53.20;;;;;;5072873;28;19963;-61
2023/06/19 05:54:35;;;;;;;;;;;24.50;53.70;;;;;;5068077;28;20367;-60
2023/06/19 05:57:04;;;;;;;;;;;24.50;54.30;;;;;;5068720;28;19930;-61
2023/06/19 05:59:29;;;;;;;;;;;24.50;53.90;;;;;;5091935;28;20370;-61
2023/06/19 06:01:55;;;;;;;;;;;24.50;53.90;;;;;;5089716;28;19920;-61
2023/06/19 06:04:21;;;;;;;;;;;24.50;53.50;;;;;;5090104;28;19943;-64
2023/06/19 06:06:47;;;;;;;;;;;24.50;54.10;;;;;;5056177;28;20858;-62
2023/06/19 06:09:14;;;;;;;;;;;24.50;54.20;;;;;;5081530;28;19928;-62
2023/06/19 06:11:40;;;;;;;;;;;24.50;54.10;;;;;;5074156;28;19920;-61
2023/06/19 06:14:05;;;;;;;;;;;24.50;54.10;;;;;;5090044;28;19931;-61
2023/06/19 06:16:30;;;;;;;;;;;24.50;53.80;;;;;;5074073;28;19920;-62
2023/06/19 06:18:56;;;;;;;;;;;24.50;53.60;;;;;;5070415;28;20019;-62
2023/06/19 06:21:22;;;;;;;;;;;24.50;53.90;;;;;;5084700;28;19936;-61
2023/06/19 06:23:48;;;;;;;;;;;24.50;53.60;;;;;;5061025;28;19927;-62
2023/06/19 06:26:13;;;;;;;;;;;24.40;53.50;;;;;;5060759;28;19979;-62
2023/06/19 06:28:39;;;;;;;;;;;24.50;54.30;;;;;;5061150;28;20446;-62
2023/06/19 06:31:04;;;;;;;;;;;24.50;54.30;;;;;;5057830;28;19963;-62
2023/06/19 06:33:30;;;;;;;;;;;24.40;54.40;;;;;;5061932;28;19967;-62
2023/06/19 06:35:57;;;;;;;;;;;24.50;54.70;;;;;;5060767;28;19928;-62
2023/06/19 06:38:22;;;;;;;;;;;24.50;55.10;;;;;;5074551;28;19927;-62
2023/06/19 06:40:48;;;;;;;;;;;24.50;55.10;;;;;;5064262;28;19947;-62
2023/06/19 06:43:13;;;;;;;;;;;24.50;55.70;;;;;;5059224;28;20010;-62
2023/06/19 06:45:39;;;;;;;;;;;24.40;55.70;;;;;;5076051;28;19927;-62
2023/06/19 06:48:06;;;;;;;;;;;24.50;55.80;;;;;;5059177;28;19932;-61
2023/06/19 06:50:32;;;;;;;;;;;24.50;56.60;;;;;;5076030;28;19928;-68
2023/06/19 06:52:57;;;;;;;;;;;24.40;56.40;;;;;;5072015;28;20367;-61
2023/06/19 06:55:23;;;;;;;;;;;24.50;56.80;;;;;;5057939;28;20415;-62
2023/06/19 06:57:48;;;;;;;;;;;24.40;56.60;;;;;;5055908;28;20008;-62
2023/06/19 07:00:14;;;;;;;;;;;24.50;56.50;;;;;;5056654;28;19928;-62
2023/06/19 07:02:40;;;;;;;;;;;24.50;56.80;;;;;;5044952;28;19924;-61
2023/06/19 07:05:07;;;;;;;;;;;24.40;56.90;;;;;;5056311;28;19928;-62
2023/06/19 07:07:32;;;;;;;;;;;24.50;57.00;;;;;;5058528;28;20390;-63
2023/06/19 07:09:58;;;;;;;;;;;24.50;57.00;;;;;;5059602;28;19955;-63
2023/06/19 07:12:23;;;;;;;;;;;24.50;56.50;;;;;;5055368;28;19928;-61
2023/06/19 07:14:49;;;;;;;;;;;24.50;56.90;;;;;;5069604;28;20043;-62
2023/06/19 07:17:14;;;;;;;;;;;24.50;56.80;;;;;;5055916;28;19924;-60
2023/06/19 07:19:40;;;;;;;;;;;24.50;56.40;;;;;;5054294;28;19932;-63
2023/06/19 07:22:05;;;;;;;;;;;24.50;57.00;;;;;;5060813;28;19920;-62
2023/06/19 07:24:31;;;;;;;;;;;24.50;57.00;;;;;;5057812;28;19925;-63
2023/06/19 07:26:56;;;;;;;;;;;24.50;56.60;;;;;;5053910;28;19924;-63
2023/06/19 07:29:22;;;;;;;;;;;24.50;56.90;;;;;;5075013;28;19929;-62
2023/06/19 07:31:48;;;;;;;;;;;24.50;57.00;;;;;;5052850;28;19954;-62
2023/06/19 07:34:13;;;;;;;;;;;24.50;57.10;;;;;;5058845;28;19924;-62
2023/06/19 07:36:39;;;;;;;;;;;24.50;57.10;;;;;;5055695;28;19956;-63
2023/06/19 07:39:05;;;;;;;;;;;24.50;57.50;;;;;;5057200;28;20349;-63
2023/06/19 07:41:31;;;;;;;;;;;24.50;57.10;;;;;;5061143;28;19931;-61
2023/06/19 07:43:56;;;;;;;;;;;24.50;57.10;;;;;;5069929;28;20419;-63
2023/06/19 07:46:22;;;;;;;;;;;24.50;57.40;;;;;;5051820;28;19971;-63
2023/06/19 07:48:47;;;;;;;;;;;24.50;57.40;;;;;;5051568;28;19938;-64
2023/06/19 07:51:13;;;;;;;;;;;24.50;57.50;;;;;;5052497;28;20263;-62
2023/06/19 07:53:39;;;;;;;;;;;24.50;57.10;;;;;;5051171;28;20074;-64
2023/06/19 07:56:05;;;;;;;;;;;24.50;57.20;;;;;;5055960;28;19924;-64
2023/06/19 07:58:30;;;;;;;;;;;24.50;57.10;;;;;;5069677;28;19928;-62
2023/06/19 08:00:56;;;;;;;;;;;24.50;56.90;;;;;;5058487;28;19924;-65
2023/06/19 08:03:22;;;;;;;;;;;24.50;56.70;;;;;;5050153;28;19936;-64
2023/06/19 08:05:48;;;;;;;;;;;24.50;56.70;;;;;;5052565;28;20198;-63
2023/06/19 08:08:13;;;;;;;;;;;24.50;56.80;;;;;;5069136;28;19996;-62
2023/06/19 08:10:40;;;;;;;;;;;24.50;56.50;;;;;;5055503;28;19922;-62
2023/06/19 08:13:06;;;;;;;;;;;24.50;56.20;;;;;;5062100;28;20486;-62
2023/06/19 08:15:32;;;;;;;;;;;24.50;56.30;;;;;;5067183;28;20026;-63
2023/06/19 08:17:57;;;;;;;;;;;24.50;56.30;;;;;;5048193;28;19916;-63
2023/06/19 08:20:23;;;;;;;;;;;24.50;56.00;;;;;;5050016;28;21044;-62
2023/06/19 08:22:48;;;;;;;;;;;24.50;56.10;;;;;;5066138;28;19920;-62
2023/06/19 08:25:14;;;;;;;;;;;24.50;55.90;;;;;;5070404;28;19932;-62
2023/06/19 08:27:39;;;;;;;;;;;24.50;56.20;;;;;;5065210;28;19924;-62
2023/06/19 08:30:05;;;;;;;;;;;24.60;56.10;;;;;;5048161;28;20357;-63
2023/06/19 08:32:31;;;;;;;;;;;24.50;56.70;;;;;;5060904;28;19917;-62
2023/06/19 08:34:56;;;;;;;;;;;24.60;56.10;;;;;;5050730;28;19925;-62
2023/06/19 08:37:22;;;;;;;;;;;24.60;56.30;;;;;;5047753;28;19934;-62
2023/06/19 08:39:47;;;;;;;;;;;24.60;56.20;;;;;;5067662;28;20376;-62
2023/06/19 08:42:13;;;;;;;;;;;24.50;56.10;;;;;;5058314;28;19969;-62
2023/06/19 08:44:38;;;;;;;;;;;24.50;56.10;;;;;;5047933;28;19981;-62
2023/06/19 08:47:04;;;;;;;;;;;24.50;56.10;;;;;;5052293;28;20455;-62
2023/06/19 08:49:30;;;;;;;;;;;24.50;56.30;;;;;;5054706;28;20095;-61
2023/06/19 08:51:56;;;;;;;;;;;24.60;56.10;;;;;;5065012;28;20421;-62
2023/06/19 08:54:22;;;;;;;;;;;24.60;56.30;;;;;;5042894;28;20039;-62
2023/06/19 08:56:48;;;;;;;;;;;24.60;56.30;;;;;;5060231;28;19977;-62
2023/06/19 08:59:14;;;;;;;;;;;24.50;56.10;;;;;;5044467;28;20273;-62
2023/06/19 09:01:39;;;;;;;;;;;24.60;56.30;;;;;;5058569;28;19930;-63
2023/06/19 09:04:09;;;;;;;;;;;24.60;56.40;;;;;;5044204;28;20423;-62
2023/06/19 09:06:37;;;;;;;;;;;24.60;56.50;;;;;;5043662;28;19964;-61
2023/06/19 09:09:06;;;;;;;;;;;24.50;56.60;;;;;;5056085;28;20299;-69
2023/06/19 09:11:32;;;;;;;;;;;24.60;56.60;;;;;;5063559;28;19924;-62
2023/06/19 09:13:58;;;;;;;;;;;24.60;56.70;;;;;;5054475;28;20563;-62
2023/06/19 09:16:35;;;;;;;;;;;24.70;56.70;;;;;;5046558;28;20006;-64
2023/06/19 09:19:01;;;;;;;;;;;24.70;56.60;;;;;;5052434;28;19924;-62
2023/06/19 09:21:28;;;;;;;;;;;24.70;56.90;;;;;;5050380;28;20321;-61
2023/06/19 09:23:54;;;;;;;;;;;24.70;56.90;;;;;;5049365;28;19920;-61
2023/06/19 09:26:20;;;;;;;;;;;24.70;56.70;;;;;;5049182;28;20610;-62
2023/06/19 09:28:46;;;;;;;;;;;24.70;56.80;;;;;;5047736;28;19984;-62
2023/06/19 09:31:12;;;;;;;;;;;24.70;56.90;;;;;;5062199;28;19928;-62
2023/06/19 09:33:39;;;;;;;;;;;24.70;56.90;;;;;;5047470;28;19954;-62
2023/06/19 09:36:05;;;;;;;;;;;24.70;56.80;;;;;;5050898;28;20389;-62
2023/06/19 09:38:32;;;;;;;;;;;24.80;56.90;;;;;;5045885;28;19924;-65
2023/06/19 09:41:01;;;;;;;;;;;24.80;56.70;;;;;;5062420;28;20385;-64
2023/06/19 09:43:32;;;;;;;;;;;24.80;56.60;;;;;;5046878;28;19938;-62
2023/06/19 09:45:58;;;;;;;;;;;24.80;56.60;;;;;;5044263;28;19924;-61
2023/06/19 09:48:28;;;;;;;;;;;24.80;56.50;;;;;;5054867;28;20062;-60
2023/06/19 09:50:55;;;;;;;;;;;24.80;56.40;;;;;;5064198;28;19924;-61
2023/06/19 09:53:23;;;;;;;;;;;24.80;56.40;;;;;;5039931;28;19963;-61
2023/06/19 09:55:50;;;;;;;;;;;24.80;56.50;;;;;;5066404;28;19924;-61
2023/06/19 09:58:17;;;;;;;;;;;24.80;56.50;;;;;;5065587;28;20042;-62
2023/06/19 10:00:43;;;;;;;;;;;24.90;56.50;;;;;;5040941;28;19970;-59
2023/06/19 10:03:12;;;;;;;;;;;24.80;56.30;;;;;;5053117;28;20650;-60
2023/06/19 10:05:38;;;;;;;;;;;24.90;56.20;;;;;;5064022;28;19924;-63
2023/06/19 10:08:04;;;;;;;;;;;24.90;55.90;;;;;;5058283;28;19928;-61
2023/06/19 10:10:30;;;;;;;;;;;24.90;55.70;;;;;;5050257;28;19923;-61
2023/06/19 10:12:57;;;;;;;;;;;24.90;55.70;;;;;;5051435;28;19946;-60
2023/06/19 10:15:25;;;;;;;;;;;24.90;55.20;;;;;;5054256;28;20051;-60
2023/06/19 10:17:52;;;;;;;;;;;24.80;55.40;;;;;;5064027;28;19928;-59
2023/06/19 10:20:22;;;;;;;;;;;24.80;55.30;;;;;;5060867;28;19936;-62
2023/06/19 10:23:07;;;;;;;;;;;24.80;55.30;;;;;;5051734;28;20376;-63
2023/06/19 10:25:34;;;;;;;;;;;24.80;55.10;;;;;;5067005;28;20209;-61
2023/06/19 10:28:00;;;;;;;;;;;24.80;55.20;;;;;;5050140;28;20376;-61
2023/06/19 10:30:26;;;;;;;;;;;24.80;55.10;;;;;;5052136;28;20014;-61
2023/06/19 10:32:51;;;;;;;;;;;24.70;55.10;;;;;;5054411;28;20023;-62
2023/06/19 10:35:17;;;;;;;;;;;24.70;55.00;;;;;;5056164;28;20011;-63
2023/06/19 10:37:44;;;;;;;;;;;24.70;55.00;;;;;;5065955;28;19924;-62
2023/06/19 10:40:10;;;;;;;;;;;24.80;55.90;;;;;;5073907;28;19928;-64
2023/06/19 10:42:37;;;;;;;;;;;24.80;55.20;;;;;;5052388;28;20378;-62
2023/06/19 10:45:04;;;;;;;;;;;24.80;55.20;;;;;;5066122;28;20852;-62
2023/06/19 10:47:29;;;;;;;;;;;24.80;55.40;;;;;;5067265;28;19924;-62
2023/06/19 10:49:55;;;;;;;;;;;24.80;55.40;;;;;;5055633;28;19963;-60
2023/06/19 10:52:20;;;;;;;;;;;24.80;55.60;;;;;;5053825;28;19935;-62
2023/06/19 10:54:46;;;;;;;;;;;24.80;55.40;;;;;;5054244;28;19928;-62
2023/06/19 10:57:13;;;;;;;;;;;24.80;55.10;;;;;;5054645;28;19928;-62
2023/06/19 10:59:39;;;;;;;;;;;24.90;55.50;;;;;;5056094;28;19924;-63
2023/06/19 11:02:05;;;;;;;;;;;24.90;55.50;;;;;;5046775;28;20693;-62
2023/06/19 11:04:31;;;;;;;;;;;24.90;55.50;;;;;;5047502;28;20023;-62
2023/06/19 11:06:56;;;;;;;;;;;24.90;55.20;;;;;;5046908;28;19971;-62
2023/06/19 11:09:22;;;;;;;;;;;24.90;54.40;;;;;;5062724;28;20021;-62
2023/06/19 11:11:48;;;;;;;;;;;24.90;54.50;;;;;;5059496;28;19964;-62
2023/06/19 11:14:14;;;;;;;;;;;24.90;54.50;;;;;;5067962;28;20299;-62
2023/06/19 11:16:41;;;;;;;;;;;24.90;54.60;;;;;;5045502;28;19935;-62
2023/06/19 11:19:08;;;;;;;;;;;24.90;54.70;;;;;;5047658;28;19931;-61
2023/06/19 11:21:38;;;;;;;;;;;24.90;54.90;;;;;;5064914;28;20391;-62
2023/06/19 11:24:05;;;;;;;;;;;24.90;54.60;;;;;;5048670;28;19950;-62
2023/06/19 11:26:35;;;;;;;;;;;24.90;54.30;;;;;;5044795;28;19928;-62
2023/06/19 11:29:01;;;;;;;;;;;24.90;54.40;;;;;;5062117;28;20376;-62
2023/06/19 11:31:27;;;;;;;;;;;24.90;54.70;;;;;;5048351;28;20019;-63
2023/06/19 11:34:01;;;;;;;;;;;24.90;54.70;;;;;;5052392;28;19928;-62
2023/06/19 11:36:29;;;;;;;;;;;24.90;54.60;;;;;;5046797;28;19924;-65
2023/06/19 11:38:55;;;;;;;;;;;24.90;54.90;;;;;;5047159;28;19928;-61
2023/06/19 11:41:28;;;;;;;;;;;24.90;54.80;;;;;;5042120;28;19929;-61
2023/06/19 11:44:02;;;;;;;;;;;24.90;54.80;;;;;;5044461;28;20380;-62
2023/06/19 11:46:30;;;;;;;;;;;24.90;54.80;;;;;;5047662;28;19925;-63
2023/06/19 11:49:06;;;;;;;;;;;24.90;54.70;;;;;;5051586;28;19951;-63
2023/06/19 11:51:32;;;;;;;;;;;24.90;54.50;;;;;;5058696;28;20148;-63
2023/06/19 11:53:57;;;;;;;;;;;24.90;55.40;;;;;;5045800;28;20367;-64
2023/06/19 11:56:23;;;;;;;;;;;24.90;54.70;;;;;;5050482;28;19924;-64
2023/06/19 11:58:48;;;;;;;;;;;24.90;54.60;;;;;;5046768;28;19932;-64
2023/06/19 12:01:13;;;;;;;;;;;24.90;54.60;;;;;;5047832;28;20447;-64
2023/06/19 12:03:40;;;;;;;;;;;24.90;54.60;;;;;;5046253;28;19928;-63
2023/06/19 12:06:06;;;;;;;;;;;24.90;54.60;;;;;;5045741;28;19928;-63
2023/06/19 12:08:32;;;;;;;;;;;24.90;54.60;;;;;;5062609;28;20682;-63
2023/06/19 12:10:57;;;;;;;;;;;24.90;54.60;;;;;;5045538;28;19925;-64
2023/06/19 12:13:23;;;;;;;;;;;24.90;54.70;;;;;;5059247;28;20228;-63
2023/06/19 12:15:48;;;;;;;;;;;24.90;54.70;;;;;;5066267;28;19975;-64
2023/06/19 12:18:14;;;;;;;;;;;24.90;54.80;;;;;;5047039;28;19924;-65
2023/06/19 12:20:39;;;;;;;;;;;25.00;54.90;;;;;;5043862;28;20014;-64
2023/06/19 12:23:05;;;;;;;;;;;25.00;54.80;;;;;;5045425;28;20280;-65
2023/06/19 12:25:30;;;;;;;;;;;25.00;54.80;;;;;;5050384;28;19928;-62
2023/06/19 12:27:56;;;;;;;;;;;25.00;55.00;;;;;;5059403;28;20011;-63
2023/06/19 12:30:21;;;;;;;;;;;25.00;55.30;;;;;;5044575;28;19928;-63
2023/06/19 12:32:49;;;;;;;;;;;25.00;55.30;;;;;;5057329;28;20121;-62
2023/06/19 12:35:15;;;;;;;;;;;25.00;54.70;;;;;;5046930;28;19951;-62
2023/06/19 12:37:40;;;;;;;;;;;25.00;54.90;;;;;;5048638;28;20556;-63
2023/06/19 12:40:10;;;;;;;;;;;25.00;55.00;;;;;;5046860;28;19947;-62
2023/06/19 12:42:36;;;;;;;;;;;25.00;54.90;;;;;;5055303;28;19950;-63
2023/06/19 12:45:02;;;;;;;;;;;25.00;54.70;;;;;;5055713;28;20410;-63
2023/06/19 12:47:28;;;;;;;;;;;25.00;54.60;;;;;;5048042;28;20570;-63
2023/06/19 12:49:54;;;;;;;;;;;25.00;54.60;;;;;;5047541;28;20006;-63
2023/06/19 12:52:19;;;;;;;;;;;25.00;54.60;;;;;;5042920;28;19928;-63
2023/06/19 12:54:44;;;;;;;;;;;25.00;54.60;;;;;;5048853;28;19932;-62
2023/06/19 12:57:10;;;;;;;;;;;25.00;54.60;;;;;;5048697;28;20647;-61
2023/06/19 12:59:36;;;;;;;;;;;25.00;54.50;;;;;;5063871;28;20032;-61
2023/06/19 13:02:02;;;;;;;;;;;25.10;54.70;;;;;;5065609;28;19934;-63
2023/06/19 13:04:27;;;;;;;;;;;25.10;55.10;;;;;;5045634;28;20086;-63
2023/06/19 13:06:52;;;;;;;;;;;25.10;55.20;;;;;;5043548;28;19932;-62
2023/06/19 13:09:18;;;;;;;;;;;25.10;55.10;;;;;;5057563;28;19931;-62
2023/06/19 13:11:44;;;;;;;;;;;25.20;55.00;;;;;;5068131;28;19920;-62
2023/06/19 13:14:09;;;;;;;;;;;25.20;55.00;;;;;;5062815;28;19928;-62
2023/06/19 13:16:35;;;;;;;;;;;25.20;54.90;;;;;;5050097;28;19997;-62
2023/06/19 13:19:00;;;;;;;;;;;25.20;54.80;;;;;;5062437;28;20528;-62
2023/06/19 13:21:26;;;;;;;;;;;25.20;54.50;;;;;;5064117;28;19935;-61
2023/06/19 13:23:51;;;;;;;;;;;25.20;54.50;;;;;;5065584;28;20372;-61
2023/06/19 13:26:17;;;;;;;;;;;25.20;54.40;;;;;;5077222;28;20374;-62
2023/06/19 13:28:42;;;;;;;;;;;25.20;54.00;;;;;;5072576;28;19931;-62
2023/06/19 13:31:08;;;;;;;;;;;25.20;54.00;;;;;;5056575;28;20007;-61
2023/06/19 13:33:34;;;;;;;;;;;25.20;54.00;;;;;;5054966;28;19994;-62
2023/06/19 13:35:59;;;;;;;;;;;25.20;54.00;;;;;;5048259;28;19943;-63
2023/06/19 13:38:25;;;;;;;;;;;25.20;54.00;;;;;;5060105;28;19920;-62
2023/06/19 13:40:50;;;;;;;;;;;25.20;53.90;;;;;;5051388;28;19956;-62
2023/06/19 13:43:16;;;;;;;;;;;25.30;53.90;;;;;;5067150;28;19997;-62
2023/06/19 13:45:42;;;;;;;;;;;25.30;53.70;;;;;;5055862;28;19927;-61
2023/06/19 13:48:07;;;;;;;;;;;25.20;53.50;;;;;;5075528;28;20021;-61
2023/06/19 13:50:33;;;;;;;;;;;25.30;53.50;;;;;;5056906;28;20318;-61
2023/06/19 13:52:59;;;;;;;;;;;25.30;53.50;;;;;;5069411;28;19931;-61
2023/06/19 13:55:25;;;;;;;;;;;25.30;53.40;;;;;;5070409;28;19935;-62
2023/06/19 13:57:50;;;;;;;;;;;25.30;53.40;;;;;;5056499;28;19920;-61
2023/06/19 14:00:16;;;;;;;;;;;25.30;53.20;;;;;;5052584;28;19928;-61
2023/06/19 14:02:41;;;;;;;;;;;25.30;53.50;;;;;;5070122;28;19946;-61
2023/06/19 14:05:08;;;;;;;;;;;25.30;53.30;;;;;;5050850;28;19943;-62
2023/06/19 14:07:34;;;;;;;;;;;25.30;53.30;;;;;;5073321;28;20306;-65
2023/06/19 14:10:00;;;;;;;;;;;25.40;53.50;;;;;;5054044;28;19924;-61
2023/06/19 14:12:26;;;;;;;;;;;25.40;52.80;;;;;;5051436;28;20355;-61